createdAt,value
2018-06-01T00:00:53.741Z,20.50
2018-06-01T00:03:21.956Z,20.30
2018-06-01T00:05:49.483Z,20.20
2018-06-01T00:08:17.527Z,20.10
2018-06-01T00:10:45.087Z,20.10
2018-06-01T00:13:12.585Z,20.20
2018-06-01T00:15:40.781Z,20.20
2018-06-01T00:18:08.243Z,19.50
2018-06-01T00:20:37.177Z,18.00
2018-06-01T00:23:04.632Z,17.90
2018-06-01T00:25:32.101Z,17.50
2018-06-01T00:27:59.671Z,17.40
2018-06-01T00:30:28.189Z,17.40
2018-06-01T00:32:55.701Z,17.20
2018-06-01T00:35:23.175Z,17.10
2018-06-01T00:37:51.310Z,16.80
2018-06-01T00:40:18.801Z,16.70
2018-06-01T00:42:46.670Z,16.70
2018-06-01T00:45:14.152Z,16.60
2018-06-01T00:47:41.601Z,16.60
2018-06-01T00:50:09.062Z,16.50
2018-06-01T00:52:36.542Z,16.60
2018-06-01T00:55:17.153Z,16.60
2018-06-01T00:57:44.606Z,16.60
2018-06-01T01:00:12.521Z,16.60
2018-06-01T01:02:40.583Z,16.60
2018-06-01T01:05:09.316Z,16.60
2018-06-01T01:07:37.196Z,16.60
2018-06-01T01:10:04.678Z,16.60
2018-06-01T01:12:32.691Z,16.60
2018-06-01T01:15:00.919Z,16.50
2018-06-01T01:17:28.408Z,16.40
2018-06-01T01:19:56.680Z,16.40
2018-06-01T01:22:24.190Z,16.40
2018-06-01T01:24:51.636Z,16.40
2018-06-01T01:27:19.125Z,16.40
2018-06-01T01:29:47.441Z,16.40
2018-06-01T01:32:15.693Z,16.20
2018-06-01T01:34:43.176Z,16.20
2018-06-01T01:37:11.414Z,16.10
2018-06-01T01:39:39.496Z,16.00
2018-06-01T01:42:06.980Z,16.00
2018-06-01T01:44:35.626Z,15.80
2018-06-01T01:47:03.080Z,15.80
2018-06-01T01:49:30.535Z,15.80
2018-06-01T01:51:58.036Z,15.80
2018-06-01T01:54:25.482Z,15.80
2018-06-01T01:56:53.494Z,15.70
2018-06-01T01:59:21.399Z,15.70
2018-06-01T02:01:49.245Z,15.70
2018-06-01T02:04:16.720Z,15.70
2018-06-01T02:06:44.194Z,15.70
2018-06-01T02:09:11.677Z,15.70
2018-06-01T02:11:39.888Z,15.70
2018-06-01T02:14:07.379Z,15.60
2018-06-01T02:16:34.827Z,15.60
2018-06-01T02:19:02.317Z,15.70
2018-06-01T02:21:29.783Z,15.80
2018-06-01T02:23:58.031Z,15.80
2018-06-01T02:26:25.485Z,15.70
2018-06-01T02:28:53.063Z,15.70
2018-06-01T02:31:20.553Z,15.70
2018-06-01T02:33:47.997Z,15.60
2018-06-01T02:36:16.241Z,15.50
2018-06-01T02:38:44.277Z,15.50
2018-06-01T02:41:11.769Z,15.50
2018-06-01T02:43:39.461Z,15.50
2018-06-01T02:46:07.673Z,15.30
2018-06-01T02:48:35.133Z,15.30
2018-06-01T02:51:03.048Z,15.30
2018-06-01T02:53:30.856Z,15.20
2018-06-01T02:55:58.716Z,15.20
2018-06-01T02:58:26.695Z,15.10
2018-06-01T03:00:54.611Z,15.20
2018-06-01T03:03:22.055Z,15.20
2018-06-01T03:05:49.860Z,15.20
2018-06-01T03:08:18.952Z,15.20
2018-06-01T03:10:47.169Z,15.20
2018-06-01T03:13:14.641Z,15.20
2018-06-01T03:15:42.104Z,15.20
2018-06-01T03:18:09.573Z,15.20
2018-06-01T03:20:37.043Z,15.20
2018-06-01T03:23:05.652Z,15.20
2018-06-01T03:25:33.140Z,15.10
2018-06-01T03:28:00.587Z,15.20
2018-06-01T03:30:28.068Z,15.20
2018-06-01T03:32:55.539Z,15.30
2018-06-01T03:35:23.422Z,15.30
2018-06-01T03:37:51.690Z,15.40
2018-06-01T03:40:19.132Z,15.40
2018-06-01T03:42:46.588Z,15.50
2018-06-01T03:45:14.050Z,15.60
2018-06-01T03:47:41.505Z,15.60
2018-06-01T03:50:08.966Z,15.70
2018-06-01T03:52:36.448Z,15.70
2018-06-01T03:55:04.664Z,15.70
2018-06-01T03:57:32.112Z,15.70
2018-06-01T03:59:59.596Z,15.70
2018-06-01T04:02:27.053Z,15.80
2018-06-01T04:04:54.503Z,15.80
2018-06-01T04:07:21.966Z,15.90
2018-06-01T04:09:49.452Z,15.90
2018-06-01T04:12:16.924Z,16.00
2018-06-01T04:14:45.151Z,16.10
2018-06-01T04:17:13.383Z,16.10
2018-06-01T04:19:42.309Z,16.20
2018-06-01T04:22:09.756Z,16.10
2018-06-01T04:24:37.789Z,16.30
2018-06-01T04:27:06.040Z,16.40
2018-06-01T04:29:33.541Z,16.40
2018-06-01T04:32:01.745Z,16.60
2018-06-01T04:34:29.198Z,16.60
2018-06-01T04:36:56.688Z,16.60
2018-06-01T04:39:24.930Z,16.80
2018-06-01T04:41:52.377Z,16.80
2018-06-01T04:44:20.431Z,17.00
2018-06-01T04:46:48.924Z,17.20
2018-06-01T04:49:17.218Z,17.20
2018-06-01T04:51:45.041Z,17.20
2018-06-01T04:54:13.938Z,17.10
2018-06-01T04:56:42.176Z,17.00
2018-06-01T04:59:13.178Z,16.90
2018-06-01T05:01:40.627Z,16.80
2018-06-01T05:04:08.823Z,16.80
2018-06-01T05:06:36.288Z,16.70
2018-06-01T05:09:03.748Z,16.70
2018-06-01T05:11:31.231Z,16.70
2018-06-01T05:13:59.731Z,16.80
2018-06-01T05:16:27.184Z,16.80
2018-06-01T05:18:55.448Z,16.90
2018-06-01T05:21:22.921Z,16.80
2018-06-01T05:23:50.367Z,16.90
2018-06-01T05:26:18.170Z,16.80
2018-06-01T05:28:45.616Z,16.80
2018-06-01T05:31:14.432Z,16.70
2018-06-01T05:33:41.910Z,16.70
2018-06-01T05:36:12.525Z,16.70
2018-06-01T05:38:39.994Z,16.70
2018-06-01T05:41:07.495Z,16.70
2018-06-01T05:43:34.975Z,16.70
2018-06-01T05:46:02.458Z,16.70
2018-06-01T05:48:29.941Z,16.80
2018-06-01T05:50:59.080Z,16.80
2018-06-01T05:53:26.582Z,16.80
2018-06-01T05:55:54.055Z,16.90
2018-06-01T05:58:21.500Z,17.00
2018-06-01T06:00:48.956Z,17.10
2018-06-01T06:03:16.988Z,17.20
2018-06-01T06:05:45.255Z,17.30
2018-06-01T06:08:13.472Z,17.40
2018-06-01T06:10:41.363Z,17.30
2018-06-01T06:13:08.846Z,17.40
2018-06-01T06:15:38.012Z,17.60
2018-06-01T06:18:05.474Z,17.60
2018-06-01T06:20:32.947Z,17.80
2018-06-01T06:23:00.419Z,17.80
2018-06-01T06:25:28.649Z,18.20
2018-06-01T06:27:56.881Z,18.40
2018-06-01T06:30:24.351Z,18.30
2018-06-01T06:32:51.846Z,18.60
2018-06-01T06:35:19.310Z,18.80
2018-06-01T06:37:46.783Z,19.10
2018-06-01T06:40:14.235Z,19.30
2018-06-01T06:42:41.717Z,19.40
2018-06-01T06:45:09.983Z,19.50
2018-06-01T06:47:38.196Z,19.80
2018-06-01T06:50:05.676Z,19.70
2018-06-01T06:52:33.147Z,19.90
2018-06-01T06:55:00.695Z,20.10
2018-06-01T06:57:28.171Z,20.10
2018-06-01T06:59:55.630Z,20.10
2018-06-01T07:02:23.089Z,20.00
2018-06-01T07:04:50.546Z,19.70
2018-06-01T07:07:18.030Z,19.70
2018-06-01T07:09:46.296Z,19.50
2018-06-01T07:12:14.536Z,19.40
2018-06-01T07:14:41.986Z,19.40
2018-06-01T07:17:09.867Z,19.30
2018-06-01T07:19:37.981Z,19.20
2018-06-01T07:22:06.233Z,19.50
2018-06-01T07:24:34.534Z,19.50
2018-06-01T07:27:03.190Z,19.70
2018-06-01T07:29:30.663Z,19.70
2018-06-01T07:31:58.871Z,19.70
2018-06-01T07:34:26.331Z,19.70
2018-06-01T07:36:53.799Z,19.60
2018-06-01T07:39:22.016Z,19.60
2018-06-01T07:41:49.470Z,19.60
2018-06-01T07:44:16.944Z,19.60
2018-06-01T07:46:45.502Z,19.70
2018-06-01T07:49:12.992Z,19.70
2018-06-01T07:51:41.200Z,19.90
2018-06-01T07:54:08.662Z,19.90
2018-06-01T07:56:36.140Z,20.00
2018-06-01T07:59:04.013Z,19.90
2018-06-01T08:01:38.085Z,19.90
2018-06-01T08:04:05.533Z,20.00
2018-06-01T08:06:33.532Z,20.00
2018-06-01T08:09:01.009Z,20.10
2018-06-01T08:11:28.458Z,20.20
2018-06-01T08:13:55.917Z,20.60
2018-06-01T08:16:23.810Z,21.00
2018-06-01T08:18:52.684Z,21.30
2018-06-01T08:21:21.096Z,22.10
2018-06-01T08:23:49.815Z,23.90
2018-06-01T08:26:17.275Z,23.90
2018-06-01T08:28:45.267Z,24.20
2018-06-01T08:31:13.770Z,24.10
2018-06-01T08:33:41.224Z,24.10
2018-06-01T08:36:08.683Z,23.60
2018-06-01T08:38:36.277Z,23.50
2018-06-01T08:41:03.767Z,23.30
2018-06-01T08:43:31.249Z,23.00
2018-06-01T08:45:58.724Z,22.70
2018-06-01T08:48:26.257Z,22.90
2018-06-01T08:50:53.709Z,22.90
2018-06-01T08:53:21.195Z,23.30
2018-06-01T08:55:48.653Z,23.30
2018-06-01T08:58:16.719Z,23.90
2018-06-01T09:00:44.392Z,24.40
2018-06-01T09:03:12.609Z,25.50
2018-06-01T09:05:40.112Z,25.40
2018-06-01T09:08:08.520Z,26.00
2018-06-01T09:10:35.995Z,25.60
2018-06-01T09:13:03.642Z,25.40
2018-06-01T09:15:32.587Z,25.00
2018-06-01T09:18:00.057Z,25.00
2018-06-01T09:20:27.517Z,24.80
2018-06-01T09:22:54.979Z,24.60
2018-06-01T09:25:22.429Z,24.10
2018-06-01T09:27:50.245Z,24.60
2018-06-01T09:30:17.683Z,24.60
2018-06-01T09:32:45.169Z,24.80
2018-06-01T09:35:12.641Z,24.60
2018-06-01T09:37:40.112Z,24.50
2018-06-01T09:40:07.597Z,24.40
2018-06-01T09:42:37.646Z,24.70
2018-06-01T09:45:05.098Z,24.70
2018-06-01T09:47:32.561Z,24.80
2018-06-01T09:50:00.060Z,25.40
2018-06-01T09:52:27.538Z,25.80
2018-06-01T09:54:55.017Z,25.50
2018-06-01T09:57:23.248Z,25.30
2018-06-01T09:59:50.729Z,25.30
2018-06-01T10:02:18.495Z,24.90
2018-06-01T10:04:45.994Z,24.60
2018-06-01T10:07:15.968Z,24.90
2018-06-01T10:09:43.412Z,25.00
2018-06-01T10:12:10.921Z,25.10
2018-06-01T10:14:40.344Z,25.00
2018-06-01T10:17:07.833Z,24.90
2018-06-01T10:19:35.285Z,25.20
2018-06-01T10:22:02.752Z,25.80
2018-06-01T10:24:30.196Z,25.70
2018-06-01T10:26:57.658Z,26.00
2018-06-01T10:29:25.149Z,25.70
2018-06-01T10:31:53.393Z,25.90
2018-06-01T10:34:21.397Z,25.90
2018-06-01T10:36:49.622Z,25.30
2018-06-01T10:39:17.108Z,25.30
2018-06-01T10:41:45.103Z,25.10
2018-06-01T10:44:13.317Z,25.60
2018-06-01T10:46:40.839Z,25.60
2018-06-01T10:49:09.056Z,26.10
2018-06-01T10:51:36.568Z,26.00
2018-06-01T10:54:04.790Z,26.10
2018-06-01T10:56:32.267Z,26.10
2018-06-01T10:58:59.749Z,25.80
2018-06-01T11:01:28.006Z,27.30
2018-06-01T11:03:55.584Z,27.20
2018-06-01T11:06:23.816Z,27.20
2018-06-01T11:08:51.264Z,27.20
2018-06-01T11:11:18.751Z,27.00
2018-06-01T11:13:46.256Z,26.60
2018-06-01T11:16:13.724Z,26.20
2018-06-01T11:18:41.179Z,25.80
2018-06-01T11:21:08.654Z,25.80
2018-06-01T11:23:36.133Z,26.00
2018-06-01T11:26:03.591Z,26.80
2018-06-01T11:28:31.077Z,27.60
2018-06-01T11:30:59.330Z,28.20
2018-06-01T11:33:26.793Z,28.10
2018-06-01T11:35:54.284Z,27.90
2018-06-01T11:38:21.875Z,27.60
2018-06-01T11:40:50.115Z,27.60
2018-06-01T11:43:18.354Z,27.80
2018-06-01T11:45:45.979Z,27.80
2018-06-01T11:48:13.431Z,27.90
2018-06-01T11:50:41.071Z,27.90
2018-06-01T11:53:08.554Z,27.80
2018-06-01T11:55:36.012Z,28.50
2018-06-01T11:58:03.507Z,29.00
2018-06-01T12:00:31.028Z,29.30
2018-06-01T12:02:58.494Z,29.90
2018-06-01T12:05:26.044Z,30.20
2018-06-01T12:07:53.777Z,30.30
2018-06-01T12:10:22.015Z,30.00
2018-06-01T12:12:49.462Z,30.00
2018-06-01T12:15:17.033Z,29.50
2018-06-01T12:17:44.500Z,29.40
2018-06-01T12:20:12.001Z,29.80
2018-06-01T12:22:39.481Z,30.20
2018-06-01T12:25:06.983Z,30.30
2018-06-01T12:27:35.357Z,29.40
2018-06-01T12:30:03.653Z,29.10
2018-06-01T12:32:31.916Z,28.90
2018-06-01T12:35:00.453Z,28.90
2018-06-01T12:37:28.092Z,29.00
2018-06-01T12:39:55.637Z,29.40
2018-06-01T12:42:23.900Z,30.40
2018-06-01T12:44:52.164Z,31.10
2018-06-01T12:47:19.650Z,31.10
2018-06-01T12:49:47.929Z,31.00
2018-06-01T12:52:15.664Z,30.90
2018-06-01T12:54:43.127Z,30.50
2018-06-01T12:57:10.644Z,30.20
2018-06-01T12:59:38.092Z,29.90
2018-06-01T13:02:06.309Z,30.00
2018-06-01T13:04:34.112Z,30.00
2018-06-01T13:07:01.592Z,29.90
2018-06-01T13:09:29.119Z,29.70
2018-06-01T13:11:57.348Z,29.80
2018-06-01T13:14:25.972Z,29.90
2018-06-01T13:16:54.322Z,29.30
2018-06-01T13:19:21.816Z,29.20
2018-06-01T13:21:49.763Z,28.80
2018-06-01T13:24:18.072Z,28.50
2018-06-01T13:26:46.234Z,28.40
2018-06-01T13:29:14.456Z,28.00
2018-06-01T13:31:41.936Z,28.50
2018-06-01T13:34:09.992Z,29.20
2018-06-01T13:36:37.932Z,29.60
2018-06-01T13:39:08.282Z,29.60
2018-06-01T13:41:36.195Z,29.30
2018-06-01T13:44:04.438Z,28.60
2018-06-01T13:46:31.932Z,28.60
2018-06-01T13:48:59.407Z,27.80
2018-06-01T13:51:27.444Z,27.70
2018-06-01T13:53:55.824Z,28.20
2018-06-01T13:56:24.128Z,28.30
2018-06-01T13:58:52.188Z,28.30
2018-06-01T14:01:19.641Z,28.30
2018-06-01T14:03:48.101Z,28.80
2018-06-01T14:06:15.548Z,28.80
2018-06-01T14:08:43.167Z,28.70
2018-06-01T14:11:10.617Z,29.00
2018-06-01T14:13:38.096Z,29.60
2018-06-01T14:16:05.584Z,29.90
2018-06-01T14:18:33.060Z,29.50
2018-06-01T14:21:01.552Z,27.50
2018-06-01T14:23:29.859Z,27.50
2018-06-01T14:25:57.367Z,27.40
2018-06-01T14:28:24.840Z,27.80
2018-06-01T14:30:53.106Z,29.30
2018-06-01T14:33:20.851Z,29.20
2018-06-01T14:35:48.535Z,29.20
2018-06-01T14:38:17.328Z,29.00
2018-06-01T14:40:45.726Z,28.80
2018-06-01T14:43:13.124Z,28.70
2018-06-01T14:45:41.544Z,29.30
2018-06-01T14:48:09.761Z,29.50
2018-06-01T14:50:37.279Z,29.40
2018-06-01T14:53:05.521Z,29.10
2018-06-01T14:55:33.010Z,29.10
2018-06-01T14:58:01.299Z,28.10
2018-06-01T15:00:29.590Z,27.00
2018-06-01T15:02:57.216Z,26.90
2018-06-01T15:05:25.480Z,25.10
2018-06-01T15:07:53.117Z,25.00
2018-06-01T15:10:20.949Z,24.50
2018-06-01T15:12:48.537Z,24.20
2018-06-01T15:15:16.020Z,25.10
2018-06-01T15:17:43.584Z,25.40
2018-06-01T15:20:11.204Z,25.30
2018-06-01T15:22:38.671Z,25.40
2018-06-01T15:25:06.260Z,25.60
2018-06-01T15:27:33.956Z,26.20
2018-06-01T15:30:01.412Z,26.90
2018-06-01T15:32:29.697Z,26.30
2018-06-01T15:34:57.144Z,26.30
2018-06-01T15:37:25.019Z,25.70
2018-06-01T15:39:52.569Z,25.60
2018-06-01T15:42:20.889Z,29.20
2018-06-01T15:44:48.356Z,29.20
2018-06-01T15:47:16.216Z,29.60
2018-06-01T15:49:43.722Z,29.40
2018-06-01T15:52:11.968Z,29.30
2018-06-01T15:54:40.197Z,30.50
2018-06-01T15:57:07.675Z,30.40
2018-06-01T15:59:35.181Z,31.00
2018-06-01T16:02:03.493Z,30.60
2018-06-01T16:04:30.982Z,30.60
2018-06-01T16:06:58.453Z,28.90
2018-06-01T16:09:25.904Z,27.30
2018-06-01T16:11:53.543Z,26.10
2018-06-01T16:14:20.990Z,25.50
2018-06-01T16:16:48.497Z,26.10
2018-06-01T16:19:15.949Z,27.20
2018-06-01T16:21:44.411Z,27.80
2018-06-01T16:24:11.889Z,28.90
2018-06-01T16:26:39.579Z,28.80
2018-06-01T16:29:07.910Z,26.60
2018-06-01T16:31:36.073Z,26.50
2018-06-01T16:34:03.541Z,25.40
2018-06-01T16:36:31.017Z,25.00
2018-06-01T16:38:58.527Z,25.70
2018-06-01T16:41:26.424Z,26.40
2018-06-01T16:43:53.875Z,26.60
2018-06-01T16:46:22.222Z,25.50
2018-06-01T16:48:49.832Z,25.50
2018-06-01T16:51:17.319Z,24.70
2018-06-01T16:53:45.561Z,24.10
2018-06-01T16:56:13.051Z,24.10
2018-06-01T16:58:42.266Z,23.90
2018-06-01T17:01:11.653Z,23.90
2018-06-01T17:03:39.937Z,24.30
2018-06-01T17:06:07.888Z,24.30
2018-06-01T17:08:35.350Z,24.60
2018-06-01T17:11:05.491Z,24.90
2018-06-01T17:13:33.000Z,24.90
2018-06-01T17:16:00.620Z,24.60
2018-06-01T17:18:28.195Z,24.60
2018-06-01T17:20:56.964Z,24.50
2018-06-01T17:23:25.304Z,24.10
2018-06-01T17:25:52.842Z,24.00
2018-06-01T17:28:21.805Z,24.10
2018-06-01T17:30:49.728Z,24.00
2018-06-01T17:33:18.949Z,24.40
2018-06-01T17:35:47.136Z,24.40
2018-06-01T17:38:14.705Z,24.10
2018-06-01T17:40:42.216Z,23.90
2018-06-01T17:43:09.796Z,23.40
2018-06-01T17:45:38.418Z,23.00
2018-06-01T17:48:06.903Z,23.00
2018-06-01T17:50:34.426Z,22.80
2018-06-01T17:53:02.649Z,22.70
2018-06-01T17:55:30.114Z,22.70
2018-06-01T17:57:57.839Z,22.60
2018-06-01T18:00:25.364Z,22.50
2018-06-01T18:02:53.597Z,22.50
2018-06-01T18:05:21.096Z,22.40
2018-06-01T18:07:49.404Z,22.10
2018-06-01T18:10:16.879Z,22.10
2018-06-01T18:12:44.929Z,21.90
2018-06-01T18:15:13.164Z,21.80
2018-06-01T18:17:40.950Z,21.60
2018-06-01T18:20:09.350Z,21.30
2018-06-01T18:22:36.952Z,21.30
2018-06-01T18:25:04.899Z,21.10
2018-06-01T18:27:32.401Z,21.00
2018-06-01T18:30:00.720Z,20.90
2018-06-01T18:32:29.038Z,20.70
2018-06-01T18:34:56.521Z,20.60
2018-06-01T18:37:24.740Z,20.40
2018-06-01T18:39:52.199Z,20.40
2018-06-01T18:42:19.683Z,20.30
2018-06-01T18:44:47.132Z,20.20
2018-06-01T18:47:14.624Z,20.10
2018-06-01T18:49:42.872Z,19.80
2018-06-01T18:52:10.903Z,19.80
2018-06-01T18:54:38.809Z,19.70
2018-06-01T18:57:06.292Z,19.50
2018-06-01T18:59:34.348Z,19.40
2018-06-01T19:02:03.794Z,19.30
2018-06-01T19:04:32.039Z,19.10
2018-06-01T19:06:59.936Z,19.00
2018-06-01T19:09:28.076Z,18.90
2018-06-01T19:11:56.401Z,18.90
2018-06-01T19:14:24.296Z,18.80
2018-06-01T19:16:51.779Z,18.70
2018-06-01T19:19:20.055Z,18.60
2018-06-01T19:21:47.940Z,18.50
2018-06-01T19:24:16.183Z,18.30
2018-06-01T19:26:43.827Z,18.30
2018-06-01T19:29:11.277Z,18.20
2018-06-01T19:31:38.856Z,18.20
2018-06-01T19:34:06.759Z,18.10
2018-06-01T19:36:35.000Z,18.00
2018-06-01T19:39:02.459Z,18.00
2018-06-01T19:41:29.940Z,18.00
2018-06-01T19:43:57.404Z,17.90
2018-06-01T19:46:25.637Z,17.80
2018-06-01T19:48:53.620Z,17.80
2018-06-01T19:51:21.079Z,17.70
2018-06-01T19:53:51.032Z,17.70
2018-06-01T19:56:18.513Z,17.70
2018-06-01T19:58:46.073Z,17.60
2018-06-01T20:01:13.864Z,17.60
2018-06-01T20:03:41.341Z,17.70
2018-06-01T20:06:08.818Z,17.80
2018-06-01T20:08:37.072Z,17.80
2018-06-01T20:11:05.731Z,17.80
2018-06-01T20:13:36.188Z,17.80
2018-06-01T20:16:04.004Z,17.90
2018-06-01T20:18:31.495Z,17.80
2018-06-01T20:21:00.381Z,17.80
2018-06-01T20:26:18.946Z,17.70
2018-06-01T20:28:47.354Z,17.50
2018-06-01T20:31:14.811Z,17.40
2018-06-01T20:33:42.694Z,17.30
2018-06-01T20:36:10.957Z,17.10
2018-06-01T20:38:38.738Z,17.10
2018-06-01T20:41:07.420Z,17.00
2018-06-01T20:43:35.877Z,17.00
2018-06-01T20:46:30.464Z,16.90
2018-06-01T20:48:57.967Z,17.00
2018-06-01T20:51:27.055Z,16.90
2018-06-01T20:53:55.321Z,16.90
2018-06-01T20:56:23.828Z,16.90
2018-06-01T20:58:51.371Z,16.90
2018-06-01T21:01:20.325Z,17.00
2018-06-01T21:03:47.833Z,17.00
2018-06-01T21:06:15.894Z,17.10
2018-06-01T21:08:45.216Z,17.10
2018-06-01T21:11:12.886Z,17.10
2018-06-01T21:13:40.868Z,17.10
2018-06-01T21:16:08.349Z,17.20
2018-06-01T21:18:35.845Z,17.20
2018-06-01T21:21:04.476Z,17.00
2018-06-01T21:23:31.939Z,17.00
2018-06-01T21:25:59.974Z,17.00
2018-06-01T21:28:27.550Z,17.00
2018-06-01T21:30:55.057Z,16.90
2018-06-01T21:33:22.496Z,16.80
2018-06-01T21:35:49.987Z,16.80
2018-06-01T21:38:19.069Z,16.60
2018-06-01T21:40:46.759Z,16.60
2018-06-01T21:43:14.231Z,16.50
2018-06-01T21:45:41.699Z,16.50
2018-06-01T21:48:09.175Z,16.40
2018-06-01T21:50:36.648Z,16.30
2018-06-01T21:53:04.192Z,16.30
2018-06-01T21:55:31.713Z,16.20
2018-06-01T21:58:00.408Z,16.10
2018-06-01T22:00:28.362Z,16.10
2018-06-01T22:02:56.804Z,16.10
2018-06-01T22:05:24.261Z,16.00
2018-06-01T22:07:51.712Z,16.00
2018-06-01T22:10:19.197Z,16.00
2018-06-01T22:12:47.447Z,16.00
2018-06-01T22:15:15.428Z,16.00
2018-06-01T22:17:43.679Z,15.80
2018-06-01T22:20:11.131Z,15.80
2018-06-01T22:22:39.843Z,15.50
2018-06-01T22:25:07.888Z,15.40
2018-06-01T22:27:35.377Z,15.30
2018-06-01T22:30:02.858Z,15.10
2018-06-01T22:32:31.615Z,14.80
2018-06-01T22:34:59.130Z,14.70
2018-06-01T22:37:26.605Z,14.70
2018-06-01T22:39:54.088Z,14.70
2018-06-01T22:42:22.526Z,14.70
2018-06-01T22:44:50.369Z,14.70
2018-06-01T22:47:19.034Z,14.80
2018-06-01T22:49:47.728Z,14.90
2018-06-01T22:52:16.364Z,14.90
2018-06-01T22:57:34.869Z,15.00
2018-06-01T23:00:02.344Z,15.00
2018-06-01T23:02:30.571Z,15.00
2018-06-01T23:04:58.039Z,15.00
2018-06-01T23:07:26.016Z,14.90
2018-06-01T23:09:56.907Z,14.70
2018-06-01T23:12:24.347Z,14.50
2018-06-01T23:14:51.805Z,14.40
2018-06-01T23:17:19.260Z,14.20
2018-06-01T23:19:46.718Z,14.00
2018-06-01T23:22:14.235Z,13.90
2018-06-01T23:24:41.700Z,13.80
2018-06-01T23:27:09.189Z,13.80
2018-06-01T23:29:36.673Z,13.70
2018-06-01T23:32:05.147Z,13.60
2018-06-01T23:34:32.631Z,13.60
2018-06-01T23:37:02.935Z,13.50
2018-06-01T23:39:30.412Z,13.50
2018-06-01T23:41:57.892Z,13.40
2018-06-01T23:44:25.382Z,13.40
2018-06-01T23:46:54.032Z,13.30
2018-06-01T23:49:22.812Z,13.30
2018-06-01T23:51:50.668Z,13.30
2018-06-01T23:54:18.137Z,13.30
2018-06-01T23:56:48.133Z,13.20
2018-06-01T23:59:16.037Z,13.20
